createdAt,value
2017-09-18T00:00:57.981Z,23.84
2017-09-18T00:03:25.561Z,23.83
2017-09-18T00:05:53.313Z,23.71
2017-09-18T00:08:20.913Z,23.67
2017-09-18T00:10:48.459Z,23.56
2017-09-18T00:13:16.054Z,23.60
2017-09-18T00:15:43.647Z,23.56
2017-09-18T00:18:11.215Z,23.57
2017-09-18T00:20:38.990Z,23.43
2017-09-18T00:23:06.611Z,23.54
2017-09-18T00:25:34.122Z,23.67
2017-09-18T00:28:01.931Z,23.74
2017-09-18T00:30:29.517Z,23.75
2017-09-18T00:32:57.067Z,23.88
2017-09-18T00:35:24.650Z,23.78
2017-09-18T00:37:52.278Z,23.65
2017-09-18T00:40:19.819Z,23.85
2017-09-18T00:42:47.361Z,23.98
2017-09-18T00:45:14.955Z,23.72
2017-09-18T00:47:42.479Z,23.58
2017-09-18T00:50:10.055Z,23.64
2017-09-18T00:52:37.701Z,23.61
2017-09-18T00:55:05.309Z,23.58
2017-09-18T00:57:33.138Z,23.45
2017-09-18T01:00:00.793Z,23.43
2017-09-18T01:02:28.414Z,23.36
2017-09-18T01:04:55.962Z,23.18
2017-09-18T01:07:23.556Z,23.25
2017-09-18T01:09:51.181Z,23.10
2017-09-18T01:12:18.975Z,22.99
2017-09-18T01:14:46.617Z,22.87
2017-09-18T01:17:14.211Z,22.88
2017-09-18T01:19:41.762Z,22.72
2017-09-18T01:22:09.548Z,22.76
2017-09-18T01:24:37.150Z,22.79
2017-09-18T01:27:04.911Z,22.62
2017-09-18T01:29:32.706Z,22.37
2017-09-18T01:32:00.294Z,22.39
2017-09-18T01:34:27.865Z,22.39
2017-09-18T01:36:55.413Z,22.46
2017-09-18T01:39:23.049Z,22.36
2017-09-18T01:41:50.586Z,22.27
2017-09-18T01:44:18.187Z,22.28
2017-09-18T01:46:45.812Z,22.04
2017-09-18T01:49:13.563Z,22.06
2017-09-18T01:51:41.139Z,22.07
2017-09-18T01:54:08.763Z,21.93
2017-09-18T01:56:36.556Z,21.92
2017-09-18T01:59:04.182Z,21.92
2017-09-18T02:01:31.840Z,21.96
2017-09-18T02:03:59.598Z,21.91
2017-09-18T02:06:27.197Z,21.75
2017-09-18T02:08:54.818Z,21.94
2017-09-18T02:11:24.192Z,21.79
2017-09-18T02:13:51.749Z,21.71
2017-09-18T02:16:20.044Z,21.75
2017-09-18T02:18:47.909Z,21.78
2017-09-18T02:21:15.731Z,21.74
2017-09-18T02:23:43.362Z,21.58
2017-09-18T02:26:10.934Z,21.48
2017-09-18T02:28:38.502Z,21.58
2017-09-18T02:31:06.419Z,21.49
2017-09-18T02:33:33.992Z,21.69
2017-09-18T02:36:01.613Z,21.66
2017-09-18T02:38:29.238Z,21.67
2017-09-18T02:40:56.769Z,21.68
2017-09-18T02:43:24.566Z,21.69
2017-09-18T02:45:52.339Z,21.67
2017-09-18T02:48:20.114Z,21.72
2017-09-18T02:50:47.908Z,21.77
2017-09-18T02:53:15.536Z,21.81
2017-09-18T02:55:43.079Z,21.79
2017-09-18T02:58:10.651Z,21.74
2017-09-18T03:00:38.224Z,21.82
2017-09-18T03:03:05.850Z,21.76
2017-09-18T03:05:33.385Z,21.83
2017-09-18T03:08:01.029Z,21.85
2017-09-18T03:10:28.656Z,21.90
2017-09-18T03:12:56.207Z,21.84
2017-09-18T03:15:23.794Z,21.86
2017-09-18T03:17:51.340Z,21.87
2017-09-18T03:20:18.873Z,21.89
2017-09-18T03:22:46.480Z,21.91
2017-09-18T03:25:14.040Z,21.98
2017-09-18T03:27:41.608Z,21.94
2017-09-18T03:30:10.615Z,21.79
2017-09-18T03:32:38.213Z,21.79
2017-09-18T03:35:06.067Z,21.81
2017-09-18T03:37:33.870Z,21.85
2017-09-18T03:40:01.457Z,21.72
2017-09-18T03:42:29.206Z,21.83
2017-09-18T03:44:56.834Z,21.74
2017-09-18T03:47:24.396Z,21.79
2017-09-18T03:49:51.955Z,21.96
2017-09-18T03:52:19.585Z,21.96
2017-09-18T03:54:47.183Z,22.01
2017-09-18T03:57:14.707Z,21.92
2017-09-18T03:59:42.383Z,21.95
2017-09-18T04:02:10.738Z,22.14
2017-09-18T04:04:38.553Z,22.12
2017-09-18T04:07:06.154Z,22.16
2017-09-18T04:09:33.749Z,22.19
2017-09-18T04:12:01.969Z,22.36
2017-09-18T04:14:29.525Z,22.60
2017-09-18T04:16:57.100Z,22.56
2017-09-18T04:19:25.618Z,22.62
2017-09-18T04:21:53.232Z,23.13
2017-09-18T04:24:21.038Z,23.61
2017-09-18T04:26:48.586Z,23.75
2017-09-18T04:29:16.098Z,23.67
2017-09-18T04:31:43.862Z,23.26
2017-09-18T04:34:11.461Z,23.09
2017-09-18T04:36:39.010Z,23.51
2017-09-18T04:39:06.603Z,23.65
2017-09-18T04:41:34.138Z,23.67
2017-09-18T04:44:01.666Z,23.99
2017-09-18T04:46:29.293Z,24.10
2017-09-18T04:48:56.835Z,24.42
2017-09-18T04:51:24.448Z,24.86
2017-09-18T04:53:52.019Z,24.96
2017-09-18T04:56:19.617Z,25.04
2017-09-18T04:58:47.206Z,25.67
2017-09-18T05:01:14.815Z,25.80
2017-09-18T05:03:42.352Z,26.03
2017-09-18T05:06:10.260Z,26.31
2017-09-18T05:08:37.793Z,26.55
2017-09-18T05:11:05.963Z,26.46
2017-09-18T05:13:33.492Z,26.79
2017-09-18T05:16:01.283Z,27.26
2017-09-18T05:18:28.872Z,27.12
2017-09-18T05:20:56.397Z,26.61
2017-09-18T05:23:23.990Z,26.94
2017-09-18T05:25:51.520Z,27.49
2017-09-18T05:28:19.065Z,27.26
2017-09-18T05:30:46.642Z,27.62
2017-09-18T05:33:14.168Z,28.70
2017-09-18T05:35:41.742Z,28.72
2017-09-18T05:38:09.300Z,28.86
2017-09-18T05:40:36.807Z,28.68
2017-09-18T05:43:04.697Z,28.90
2017-09-18T05:45:32.323Z,29.52
2017-09-18T05:47:59.847Z,29.75
2017-09-18T05:50:27.373Z,29.66
2017-09-18T05:52:54.954Z,29.97
2017-09-18T05:55:22.537Z,30.01
2017-09-18T05:57:50.104Z,30.07
2017-09-18T06:00:17.683Z,29.85
2017-09-18T06:02:45.199Z,30.24
2017-09-18T06:05:12.702Z,30.13
2017-09-18T06:07:40.486Z,30.51
2017-09-18T06:10:08.022Z,30.54
2017-09-18T06:12:35.770Z,30.31
2017-09-18T06:15:03.349Z,30.30
2017-09-18T06:17:30.975Z,30.94
2017-09-18T06:19:58.484Z,30.69
2017-09-18T06:22:26.044Z,31.23
2017-09-18T06:24:54.660Z,31.67
2017-09-18T06:27:22.217Z,31.40
2017-09-18T06:29:49.767Z,30.93
2017-09-18T06:32:17.337Z,31.24
2017-09-18T06:34:44.883Z,31.17
2017-09-18T06:37:12.404Z,31.61
2017-09-18T06:39:40.035Z,31.35
2017-09-18T06:42:08.067Z,31.57
2017-09-18T06:44:35.589Z,31.52
2017-09-18T06:47:03.161Z,32.38
2017-09-18T06:49:30.718Z,32.37
2017-09-18T06:51:58.253Z,32.61
2017-09-18T06:54:25.899Z,32.51
2017-09-18T06:56:53.437Z,32.48
2017-09-18T06:59:20.953Z,32.66
2017-09-18T07:01:48.584Z,32.36
2017-09-18T07:04:16.152Z,32.82
2017-09-18T07:06:43.691Z,32.27
2017-09-18T07:09:11.251Z,32.24
2017-09-18T07:11:38.765Z,33.05
2017-09-18T07:14:06.357Z,32.99
2017-09-18T07:16:33.938Z,33.28
2017-09-18T07:19:01.704Z,33.06
2017-09-18T07:21:29.222Z,33.42
2017-09-18T07:23:56.834Z,33.48
2017-09-18T07:26:24.394Z,32.82
2017-09-18T07:28:51.967Z,32.98
2017-09-18T07:31:19.554Z,33.47
2017-09-18T07:33:47.161Z,34.01
2017-09-18T07:36:14.676Z,33.55
2017-09-18T07:38:42.237Z,33.96
2017-09-18T07:41:09.777Z,33.81
2017-09-18T07:43:37.597Z,34.09
2017-09-18T07:46:05.206Z,33.76
2017-09-18T07:48:32.832Z,34.30
2017-09-18T07:51:00.338Z,34.12
2017-09-18T07:53:28.106Z,34.40
2017-09-18T07:55:55.875Z,34.81
2017-09-18T07:58:23.618Z,34.73
2017-09-18T08:00:51.159Z,34.74
2017-09-18T08:03:19.159Z,34.82
2017-09-18T08:05:46.691Z,34.64
2017-09-18T08:08:14.339Z,34.35
2017-09-18T08:10:41.935Z,34.19
2017-09-18T08:13:09.800Z,35.38
2017-09-18T08:15:37.360Z,35.43
2017-09-18T08:18:04.927Z,35.90
2017-09-18T08:20:32.483Z,35.98
2017-09-18T08:23:00.103Z,36.26
2017-09-18T08:25:27.624Z,35.89
2017-09-18T08:27:55.202Z,36.50
2017-09-18T08:30:23.980Z,36.44
2017-09-18T08:32:51.546Z,36.48
2017-09-18T08:35:19.067Z,36.17
2017-09-18T08:37:46.644Z,36.58
2017-09-18T08:40:14.555Z,36.01
2017-09-18T08:42:42.330Z,35.05
2017-09-18T08:45:09.965Z,35.17
2017-09-18T08:47:37.594Z,35.60
2017-09-18T08:50:05.194Z,35.55
2017-09-18T08:52:32.766Z,34.95
2017-09-18T08:55:00.371Z,34.46
2017-09-18T08:57:28.256Z,34.51
2017-09-18T08:59:55.853Z,34.53
2017-09-18T09:02:23.442Z,34.71
2017-09-18T09:04:50.981Z,35.05
2017-09-18T09:07:18.551Z,34.89
2017-09-18T09:09:46.164Z,35.44
2017-09-18T09:12:13.769Z,35.79
2017-09-18T09:14:41.314Z,35.68
2017-09-18T09:17:08.879Z,35.68
2017-09-18T09:19:36.441Z,34.86
2017-09-18T09:22:03.947Z,35.16
2017-09-18T09:24:31.530Z,34.77
2017-09-18T09:26:59.344Z,35.12
2017-09-18T09:29:26.918Z,34.95
2017-09-18T09:31:54.501Z,34.96
2017-09-18T09:34:22.018Z,35.18
2017-09-18T09:36:49.542Z,35.67
2017-09-18T09:39:17.248Z,35.21
2017-09-18T09:41:45.074Z,34.83
2017-09-18T09:44:12.632Z,35.02
2017-09-18T09:46:40.242Z,34.55
2017-09-18T09:49:07.765Z,34.18
2017-09-18T09:51:35.296Z,34.73
2017-09-18T09:54:02.862Z,34.83
2017-09-18T09:56:30.410Z,35.35
2017-09-18T09:58:57.983Z,35.32
2017-09-18T10:01:25.599Z,35.35
2017-09-18T10:03:53.137Z,35.37
2017-09-18T10:06:20.723Z,35.02
2017-09-18T10:08:48.425Z,34.60
2017-09-18T10:11:15.954Z,33.79
2017-09-18T10:13:43.522Z,34.41
2017-09-18T10:16:11.089Z,34.87
2017-09-18T10:18:38.631Z,35.07
2017-09-18T10:21:06.135Z,34.95
2017-09-18T10:23:33.725Z,34.35
2017-09-18T10:26:01.233Z,33.86
2017-09-18T10:28:28.837Z,34.20
2017-09-18T10:30:56.420Z,34.60
2017-09-18T10:33:23.945Z,34.27
2017-09-18T10:35:51.804Z,34.44
2017-09-18T10:38:19.469Z,34.31
2017-09-18T10:40:47.259Z,33.85
2017-09-18T10:43:14.785Z,33.84
2017-09-18T10:45:42.362Z,34.19
2017-09-18T10:48:09.925Z,34.70
2017-09-18T10:50:37.490Z,34.97
2017-09-18T10:53:05.086Z,34.90
2017-09-18T10:55:32.826Z,34.92
2017-09-18T10:58:00.416Z,35.00
2017-09-18T11:00:28.098Z,35.06
2017-09-18T11:02:55.629Z,35.06
2017-09-18T11:05:23.397Z,34.14
2017-09-18T11:07:50.959Z,34.31
2017-09-18T11:10:18.470Z,34.13
2017-09-18T11:12:46.286Z,34.18
2017-09-18T11:15:13.873Z,34.48
2017-09-18T11:17:41.406Z,34.62
2017-09-18T11:20:08.920Z,34.64
2017-09-18T11:22:36.489Z,34.54
2017-09-18T11:25:04.072Z,34.69
2017-09-18T11:27:31.610Z,34.44
2017-09-18T11:29:59.175Z,34.35
2017-09-18T11:32:26.743Z,34.04
2017-09-18T11:34:54.265Z,33.38
2017-09-18T11:37:21.821Z,33.08
2017-09-18T11:39:49.399Z,33.69
2017-09-18T11:42:16.910Z,33.74
2017-09-18T11:44:44.471Z,33.96
2017-09-18T11:47:12.109Z,34.30
2017-09-18T11:49:39.637Z,34.31
2017-09-18T11:52:07.153Z,34.35
2017-09-18T11:54:34.712Z,34.33
2017-09-18T11:57:02.234Z,34.73
2017-09-18T11:59:30.293Z,34.72
2017-09-18T12:01:57.874Z,34.42
2017-09-18T12:04:25.397Z,34.65
2017-09-18T12:06:52.905Z,33.97
2017-09-18T12:09:20.516Z,33.69
2017-09-18T12:11:48.058Z,33.95
2017-09-18T12:14:15.879Z,34.11
2017-09-18T12:16:43.494Z,34.21
2017-09-18T12:19:11.298Z,34.19
2017-09-18T12:21:38.908Z,34.51
2017-09-18T12:24:06.493Z,34.25
2017-09-18T12:26:34.450Z,34.07
2017-09-18T12:29:02.726Z,33.96
2017-09-18T12:31:31.043Z,34.01
2017-09-18T12:33:58.670Z,34.15
2017-09-18T12:36:26.647Z,34.19
2017-09-18T12:38:54.257Z,33.92
2017-09-18T12:41:21.784Z,33.95
2017-09-18T12:43:50.001Z,33.81
2017-09-18T12:46:17.556Z,33.89
2017-09-18T12:48:45.148Z,33.89
2017-09-18T12:51:13.226Z,33.97
2017-09-18T12:53:40.788Z,33.68
2017-09-18T12:56:08.325Z,33.69
2017-09-18T12:58:35.904Z,33.76
2017-09-18T13:01:03.489Z,33.99
2017-09-18T13:03:31.104Z,33.84
2017-09-18T13:05:58.686Z,33.56
2017-09-18T13:08:26.273Z,33.33
2017-09-18T13:10:53.798Z,33.41
2017-09-18T13:13:21.297Z,33.33
2017-09-18T13:15:49.057Z,33.29
2017-09-18T13:18:16.626Z,33.43
2017-09-18T13:20:44.553Z,33.39
2017-09-18T13:23:12.167Z,33.50
2017-09-18T13:25:39.914Z,33.66
2017-09-18T13:28:07.500Z,33.57
2017-09-18T13:30:35.292Z,33.34
2017-09-18T13:33:02.817Z,33.05
2017-09-18T13:35:30.657Z,33.22
2017-09-18T13:37:58.203Z,33.24
2017-09-18T13:40:25.724Z,33.23
2017-09-18T13:42:53.341Z,33.13
2017-09-18T13:45:20.975Z,32.89
2017-09-18T13:47:48.719Z,32.88
2017-09-18T13:50:16.276Z,32.97
2017-09-18T13:52:43.835Z,32.73
2017-09-18T13:55:11.433Z,32.55
2017-09-18T13:57:38.941Z,32.72
2017-09-18T14:00:06.876Z,32.65
2017-09-18T14:02:34.412Z,32.66
2017-09-18T14:05:01.958Z,32.51
2017-09-18T14:07:29.568Z,32.31
2017-09-18T14:09:57.108Z,32.38
2017-09-18T14:12:24.627Z,32.20
2017-09-18T14:14:52.167Z,32.09
2017-09-18T14:17:19.740Z,31.83
2017-09-18T14:19:47.323Z,31.61
2017-09-18T14:22:14.876Z,31.42
2017-09-18T14:24:42.456Z,31.39
2017-09-18T14:27:10.038Z,31.35
2017-09-18T14:29:37.615Z,31.25
2017-09-18T14:32:05.985Z,30.95
2017-09-18T14:34:33.546Z,30.98
2017-09-18T14:37:01.072Z,30.76
2017-09-18T14:39:28.627Z,30.78
2017-09-18T14:41:56.402Z,30.83
2017-09-18T14:44:23.922Z,30.95
2017-09-18T14:46:51.497Z,30.78
2017-09-18T14:49:19.082Z,30.78
2017-09-18T14:51:46.689Z,30.66
2017-09-18T14:54:14.242Z,30.80
2017-09-18T14:56:41.785Z,30.62
2017-09-18T14:59:09.297Z,30.40
2017-09-18T15:01:36.872Z,30.33
2017-09-18T15:04:04.636Z,30.34
2017-09-18T15:06:32.190Z,30.31
2017-09-18T15:08:59.994Z,30.20
2017-09-18T15:11:27.523Z,30.11
2017-09-18T15:13:55.052Z,30.08
2017-09-18T15:16:22.624Z,30.20
2017-09-18T15:18:50.176Z,30.20
2017-09-18T15:21:17.717Z,30.25
2017-09-18T15:23:45.312Z,30.12
2017-09-18T15:26:12.842Z,30.12
2017-09-18T15:28:40.391Z,30.07
2017-09-18T15:31:07.981Z,30.10
2017-09-18T15:33:35.848Z,30.04
2017-09-18T15:36:04.023Z,29.92
2017-09-18T15:38:31.635Z,29.90
2017-09-18T15:40:59.846Z,29.91
2017-09-18T15:43:27.472Z,29.79
2017-09-18T15:45:55.089Z,29.63
2017-09-18T15:48:22.683Z,29.56
2017-09-18T15:50:50.429Z,29.51
2017-09-18T15:53:18.022Z,29.48
2017-09-18T15:55:45.603Z,29.29
2017-09-18T15:58:13.223Z,29.37
2017-09-18T16:00:40.813Z,29.31
2017-09-18T16:03:08.366Z,29.20
2017-09-18T16:05:35.915Z,29.11
2017-09-18T16:08:03.534Z,28.92
2017-09-18T16:10:31.082Z,28.89
2017-09-18T16:12:58.646Z,28.81
2017-09-18T16:15:26.223Z,28.73
2017-09-18T16:17:53.755Z,28.66
2017-09-18T16:20:21.290Z,28.63
2017-09-18T16:22:48.923Z,28.43
2017-09-18T16:25:16.848Z,28.48
2017-09-18T16:27:44.366Z,28.37
2017-09-18T16:30:12.848Z,28.25
2017-09-18T16:32:40.419Z,28.24
2017-09-18T16:35:08.179Z,28.19
2017-09-18T16:37:35.752Z,28.18
2017-09-18T16:40:03.546Z,28.26
2017-09-18T16:42:31.170Z,28.03
2017-09-18T16:44:58.770Z,28.05
2017-09-18T16:47:26.342Z,27.81
2017-09-18T16:49:53.924Z,27.80
2017-09-18T16:52:21.539Z,27.76
2017-09-18T16:54:49.122Z,27.70
2017-09-18T16:57:16.677Z,27.60
2017-09-18T16:59:44.330Z,27.67
2017-09-18T17:02:11.910Z,27.51
2017-09-18T17:04:39.473Z,27.50
2017-09-18T17:07:07.047Z,27.46
2017-09-18T17:09:34.671Z,27.52
2017-09-18T17:12:02.223Z,27.48
2017-09-18T17:14:29.796Z,27.34
2017-09-18T17:16:57.419Z,27.20
2017-09-18T17:19:25.011Z,27.21
2017-09-18T17:21:52.642Z,27.32
2017-09-18T17:24:20.346Z,27.25
2017-09-18T17:26:48.102Z,27.20
2017-09-18T17:29:15.734Z,27.15
2017-09-18T17:31:43.339Z,27.09
2017-09-18T17:34:11.127Z,26.93
2017-09-18T17:36:38.768Z,26.92
2017-09-18T17:39:14.524Z,26.91
2017-09-18T17:41:42.103Z,26.91
2017-09-18T17:44:09.720Z,26.97
2017-09-18T17:46:37.303Z,27.08
2017-09-18T17:49:05.152Z,26.93
2017-09-18T17:51:32.713Z,26.87
2017-09-18T17:54:00.304Z,26.92
2017-09-18T17:56:27.856Z,26.80
2017-09-18T17:58:55.532Z,26.66
2017-09-18T18:01:23.139Z,26.51
2017-09-18T18:03:51.071Z,26.49
2017-09-18T18:06:18.646Z,26.51
2017-09-18T18:08:46.275Z,26.42
2017-09-18T18:11:13.845Z,26.37
2017-09-18T18:13:41.471Z,26.40
2017-09-18T18:16:09.063Z,26.27
2017-09-18T18:18:36.623Z,26.12
2017-09-18T18:21:04.217Z,26.17
2017-09-18T18:23:31.803Z,26.19
2017-09-18T18:25:59.390Z,26.12
2017-09-18T18:28:26.989Z,26.09
2017-09-18T18:30:54.635Z,26.15
2017-09-18T18:33:22.799Z,26.07
2017-09-18T18:35:50.373Z,26.10
2017-09-18T18:38:17.991Z,25.87
2017-09-18T18:40:45.549Z,25.94
2017-09-18T18:43:13.999Z,25.92
2017-09-18T18:45:41.606Z,26.04
2017-09-18T18:48:09.457Z,25.99
2017-09-18T18:50:38.075Z,25.85
2017-09-18T18:53:06.497Z,25.74
2017-09-18T18:55:34.051Z,25.66
2017-09-18T18:58:01.704Z,25.76
2017-09-18T19:00:29.298Z,25.78
2017-09-18T19:02:56.899Z,25.75
2017-09-18T19:05:24.417Z,25.74
2017-09-18T19:07:51.974Z,25.77
2017-09-18T19:10:19.787Z,25.80
2017-09-18T19:12:47.348Z,25.76
2017-09-18T19:15:14.953Z,25.74
2017-09-18T19:17:42.893Z,25.46
2017-09-18T19:20:10.476Z,25.58
2017-09-18T19:22:39.046Z,25.52
2017-09-18T19:25:06.580Z,25.43
2017-09-18T19:27:34.349Z,25.51
2017-09-18T19:30:01.994Z,25.49
2017-09-18T19:32:29.616Z,25.45
2017-09-18T19:34:57.378Z,25.41
2017-09-18T19:37:24.963Z,25.35
2017-09-18T19:39:52.571Z,25.35
2017-09-18T19:42:20.097Z,25.15
2017-09-18T19:44:47.890Z,24.97
2017-09-18T19:47:15.600Z,25.02
2017-09-18T19:49:43.233Z,25.07
2017-09-18T19:52:10.851Z,24.98
2017-09-18T19:54:38.446Z,24.90
2017-09-18T19:57:05.996Z,24.72
2017-09-18T19:59:33.600Z,24.58
2017-09-18T20:02:01.185Z,24.79
2017-09-18T20:04:28.759Z,24.60
2017-09-18T20:06:56.311Z,24.58
2017-09-18T20:09:23.931Z,24.64
2017-09-18T20:11:51.526Z,24.78
2017-09-18T20:14:19.323Z,24.77
2017-09-18T20:16:46.902Z,24.63
2017-09-18T20:19:14.477Z,24.42
2017-09-18T20:21:42.049Z,24.20
2017-09-18T20:24:09.607Z,24.21
2017-09-18T20:26:38.144Z,24.47
2017-09-18T20:29:05.675Z,24.53
2017-09-18T20:31:33.300Z,24.54
2017-09-18T20:34:00.881Z,24.50
2017-09-18T20:36:28.698Z,24.65
2017-09-18T20:38:56.516Z,24.55
2017-09-18T20:41:24.177Z,24.51
2017-09-18T20:43:53.232Z,24.52
2017-09-18T20:46:20.867Z,24.19
2017-09-18T20:48:48.453Z,24.00
2017-09-18T20:51:16.030Z,23.96
2017-09-18T20:53:43.646Z,24.16
2017-09-18T20:56:11.302Z,24.19
2017-09-18T20:58:39.046Z,24.26
2017-09-18T21:01:06.642Z,24.16
2017-09-18T21:03:34.209Z,24.23
2017-09-18T21:06:01.811Z,24.17
2017-09-18T21:08:29.505Z,24.13
2017-09-18T21:10:57.061Z,24.04
2017-09-18T21:13:24.613Z,23.97
2017-09-18T21:15:52.201Z,23.95
2017-09-18T21:18:19.748Z,23.87
2017-09-18T21:20:47.307Z,23.96
2017-09-18T21:23:14.906Z,23.80
2017-09-18T21:25:42.482Z,23.70
2017-09-18T21:28:10.265Z,23.90
2017-09-18T21:30:37.972Z,23.92
2017-09-18T21:33:05.550Z,23.91
2017-09-18T21:35:33.154Z,23.92
2017-09-18T21:38:00.783Z,23.88
2017-09-18T21:40:28.307Z,23.90
2017-09-18T21:42:55.927Z,23.77
2017-09-18T21:45:23.537Z,23.66
2017-09-18T21:47:51.092Z,23.65
2017-09-18T21:50:18.855Z,23.61
2017-09-18T21:52:46.431Z,23.36
2017-09-18T21:55:13.980Z,23.51
2017-09-18T21:57:49.990Z,23.61
2017-09-18T22:00:17.607Z,23.44
2017-09-18T22:02:45.218Z,23.49
2017-09-18T22:05:15.340Z,23.37
2017-09-18T22:07:43.000Z,23.28
2017-09-18T22:10:10.611Z,23.19
2017-09-18T22:12:38.183Z,23.23
2017-09-18T22:15:06.725Z,22.66
2017-09-18T22:17:34.607Z,23.05
2017-09-18T22:23:23.071Z,22.86
2017-09-18T22:25:50.693Z,22.86
2017-09-18T22:28:18.388Z,22.82
2017-09-18T22:30:46.047Z,22.84
2017-09-18T22:33:13.636Z,22.82
2017-09-18T22:35:41.451Z,22.90
2017-09-18T22:38:09.078Z,22.70
2017-09-18T22:40:36.773Z,22.61
2017-09-18T22:43:04.795Z,22.59
2017-09-18T22:45:32.405Z,22.58
2017-09-18T22:47:59.960Z,22.63
2017-09-18T22:50:27.511Z,22.47
2017-09-18T22:52:55.161Z,22.33
2017-09-18T22:55:22.748Z,22.25
2017-09-18T22:57:50.274Z,22.34
2017-09-18T23:00:17.915Z,22.00
2017-09-18T23:02:45.759Z,21.82
2017-09-18T23:05:13.281Z,21.63
2017-09-18T23:07:40.872Z,21.70
2017-09-18T23:10:08.425Z,21.52
2017-09-18T23:12:36.910Z,21.55
2017-09-18T23:15:04.503Z,21.42
2017-09-18T23:17:32.039Z,21.57
2017-09-18T23:19:59.651Z,21.84
2017-09-18T23:22:27.221Z,21.76
2017-09-18T23:24:54.774Z,21.80
2017-09-18T23:27:22.342Z,21.98
2017-09-18T23:29:49.951Z,21.83
2017-09-18T23:32:17.521Z,21.85
2017-09-18T23:34:45.060Z,22.04
2017-09-18T23:37:13.156Z,22.11
2017-09-18T23:39:40.721Z,21.73
2017-09-18T23:42:08.286Z,21.78
2017-09-18T23:44:35.822Z,21.78
2017-09-18T23:47:03.634Z,21.87
2017-09-18T23:49:31.155Z,21.73
2017-09-18T23:51:58.688Z,21.82
2017-09-18T23:54:26.624Z,21.67
2017-09-18T23:56:54.995Z,21.52
2017-09-18T23:59:22.784Z,21.61
